createdAt,value
2023-02-22T00:00:59.989Z,11.40
2023-02-22T00:03:32.388Z,11.40
2023-02-22T00:06:05.241Z,11.40
2023-02-22T00:08:35.647Z,11.30
2023-02-22T00:11:10.882Z,11.30
2023-02-22T00:13:39.177Z,11.30
2023-02-22T00:16:07.119Z,11.30
2023-02-22T00:18:34.430Z,11.20
2023-02-22T00:21:02.154Z,11.20
2023-02-22T00:23:30.855Z,11.10
2023-02-22T00:26:00.264Z,11.00
2023-02-22T00:28:27.979Z,11.00
2023-02-22T00:30:55.802Z,11.00
2023-02-22T00:33:23.623Z,10.90
2023-02-22T00:35:50.982Z,10.90
2023-02-22T00:38:19.688Z,10.80
2023-02-22T00:40:47.101Z,10.80
2023-02-22T00:43:15.026Z,10.70
2023-02-22T00:45:42.810Z,10.70
2023-02-22T00:48:10.590Z,10.60
2023-02-22T00:50:38.063Z,10.50
2023-02-22T00:53:05.731Z,10.50
2023-02-22T00:55:35.997Z,10.40
2023-02-22T00:58:04.869Z,10.40
2023-02-22T01:00:40.512Z,10.40
2023-02-22T01:03:10.625Z,10.30
2023-02-22T01:05:38.380Z,10.30
2023-02-22T01:08:07.645Z,10.30
2023-02-22T01:10:35.644Z,10.20
2023-02-22T01:13:09.410Z,10.20
2023-02-22T01:15:39.809Z,10.20
2023-02-22T01:18:07.485Z,10.20
2023-02-22T01:20:35.129Z,10.20
2023-02-22T01:23:06.721Z,10.20
2023-02-22T01:25:35.284Z,10.10
2023-02-22T01:28:03.898Z,10.20
2023-02-22T01:30:33.646Z,10.20
2023-02-22T01:33:03.596Z,10.20
2023-02-22T01:35:33.292Z,10.30
2023-02-22T01:38:01.077Z,10.20
2023-02-22T01:40:39.103Z,10.30
2023-02-22T01:43:25.671Z,10.30
2023-02-22T01:46:03.723Z,10.20
2023-02-22T01:48:40.041Z,10.10
2023-02-22T01:51:20.878Z,10.10
2023-02-22T01:54:23.663Z,9.90
2023-02-22T01:57:23.272Z,9.90
2023-02-22T01:59:56.737Z,9.80
2023-02-22T02:02:25.338Z,9.70
2023-02-22T02:04:56.553Z,9.70
2023-02-22T02:07:24.783Z,9.70
2023-02-22T02:10:02.005Z,9.70
2023-02-22T02:12:38.612Z,9.70
2023-02-22T02:15:26.107Z,9.70
2023-02-22T02:18:02.495Z,9.60
2023-02-22T02:20:41.891Z,9.50
2023-02-22T02:23:20.572Z,9.50
2023-02-22T02:25:54.657Z,9.50
2023-02-22T02:28:43.283Z,9.50
2023-02-22T02:31:48.078Z,9.40
2023-02-22T02:34:27.265Z,9.40
2023-02-22T02:37:07.540Z,9.40
2023-02-22T02:39:59.277Z,9.40
2023-02-22T02:42:38.319Z,9.30
2023-02-22T02:45:11.136Z,9.30
2023-02-22T02:47:43.820Z,9.30
2023-02-22T02:50:34.009Z,9.20
2023-02-22T02:53:07.013Z,9.20
2023-02-22T02:55:36.922Z,9.20
2023-02-22T02:58:08.404Z,9.20
2023-02-22T03:00:42.147Z,9.10
2023-02-22T03:03:15.321Z,9.00
2023-02-22T03:06:22.670Z,9.00
2023-02-22T03:09:13.735Z,9.00
2023-02-22T03:12:18.659Z,9.10
2023-02-22T03:15:08.013Z,9.10
2023-02-22T03:17:45.415Z,9.10
2023-02-22T03:20:12.627Z,9.10
2023-02-22T03:23:06.546Z,9.10
2023-02-22T03:25:50.151Z,9.10
2023-02-22T03:28:21.540Z,9.10
2023-02-22T03:31:02.153Z,9.20
2023-02-22T03:33:34.019Z,9.20
2023-02-22T03:36:22.269Z,9.20
2023-02-22T03:38:51.424Z,9.30
2023-02-22T03:41:25.179Z,9.20
2023-02-22T03:44:08.664Z,9.20
2023-02-22T03:46:40.792Z,9.10
2023-02-22T03:49:20.332Z,9.10
2023-02-22T03:51:48.424Z,9.10
2023-02-22T03:54:16.690Z,9.20
2023-02-22T03:57:16.592Z,9.20
2023-02-22T03:59:45.969Z,9.30
2023-02-22T04:02:13.250Z,9.40
2023-02-22T04:04:40.720Z,9.40
2023-02-22T04:07:08.994Z,9.30
2023-02-22T04:09:37.238Z,9.20
2023-02-22T04:12:05.113Z,9.20
2023-02-22T04:14:42.450Z,9.10
2023-02-22T04:17:10.363Z,9.00
2023-02-22T04:19:37.644Z,9.00
2023-02-22T04:22:05.386Z,8.90
2023-02-22T04:24:34.764Z,8.90
2023-02-22T04:27:02.005Z,8.90
2023-02-22T04:29:30.113Z,8.90
2023-02-22T04:31:57.558Z,8.80
2023-02-22T04:34:24.854Z,8.80
2023-02-22T04:36:52.543Z,8.80
2023-02-22T04:39:20.573Z,8.70
2023-02-22T04:41:47.829Z,8.70
2023-02-22T04:44:15.473Z,8.60
2023-02-22T04:46:42.942Z,8.50
2023-02-22T04:49:13.469Z,8.40
2023-02-22T04:51:42.672Z,8.40
2023-02-22T04:54:13.779Z,8.40
2023-02-22T04:56:46.552Z,8.40
2023-02-22T04:59:13.884Z,8.30
2023-02-22T05:01:44.869Z,8.30
2023-02-22T05:04:12.260Z,8.30
2023-02-22T05:06:39.386Z,8.20
2023-02-22T05:09:06.737Z,8.20
2023-02-22T05:11:34.062Z,8.10
2023-02-22T05:14:01.403Z,8.20
2023-02-22T05:16:28.592Z,8.10
2023-02-22T05:18:55.858Z,8.00
2023-02-22T05:21:23.713Z,7.90
2023-02-22T05:23:50.902Z,8.00
2023-02-22T05:26:19.123Z,8.10
2023-02-22T05:28:46.465Z,8.10
2023-02-22T05:31:14.097Z,8.10
2023-02-22T05:33:41.604Z,8.00
2023-02-22T05:36:09.730Z,8.00
2023-02-22T05:38:43.386Z,8.00
2023-02-22T05:41:13.216Z,7.90
2023-02-22T05:43:41.398Z,7.90
2023-02-22T05:46:08.676Z,8.00
2023-02-22T05:48:36.666Z,7.90
2023-02-22T05:51:05.084Z,7.70
2023-02-22T05:53:38.201Z,7.50
2023-02-22T05:56:07.240Z,7.60
2023-02-22T05:58:34.475Z,7.70
2023-02-22T06:01:03.331Z,7.70
2023-02-22T06:03:30.736Z,7.70
2023-02-22T06:05:58.224Z,7.70
2023-02-22T06:08:25.385Z,7.80
2023-02-22T06:10:52.631Z,7.90
2023-02-22T06:13:19.872Z,7.90
2023-02-22T06:15:47.226Z,8.00
2023-02-22T06:18:14.389Z,8.10
2023-02-22T06:20:41.611Z,8.20
2023-02-22T06:23:09.065Z,8.20
2023-02-22T06:25:36.723Z,8.30
2023-02-22T06:28:04.361Z,8.30
2023-02-22T06:30:33.511Z,8.20
2023-02-22T06:33:02.686Z,8.20
2023-02-22T06:35:42.720Z,8.30
2023-02-22T06:38:12.812Z,8.40
2023-02-22T06:40:40.629Z,8.40
2023-02-22T06:43:11.144Z,8.50
2023-02-22T06:45:38.585Z,8.60
2023-02-22T06:48:05.921Z,8.70
2023-02-22T06:50:35.845Z,8.80
2023-02-22T06:53:03.801Z,8.90
2023-02-22T06:55:33.026Z,9.00
2023-02-22T06:58:01.743Z,9.00
2023-02-22T07:00:30.546Z,9.00
2023-02-22T07:02:58.368Z,9.00
2023-02-22T07:05:27.061Z,9.20
2023-02-22T07:08:01.231Z,9.20
2023-02-22T07:10:31.461Z,9.30
2023-02-22T07:12:58.704Z,9.40
2023-02-22T07:15:28.033Z,9.40
2023-02-22T07:17:55.966Z,9.50
2023-02-22T07:20:24.727Z,9.50
2023-02-22T07:22:52.709Z,9.40
2023-02-22T07:25:20.378Z,9.40
2023-02-22T07:27:48.109Z,9.50
2023-02-22T07:30:21.179Z,9.60
2023-02-22T07:33:01.313Z,9.70
2023-02-22T07:35:41.173Z,9.80
2023-02-22T07:38:10.522Z,9.90
2023-02-22T07:40:39.132Z,9.90
2023-02-22T07:43:15.085Z,10.10
2023-02-22T07:45:42.914Z,10.10
2023-02-22T07:48:17.755Z,10.10
2023-02-22T07:51:04.769Z,10.20
2023-02-22T07:53:33.701Z,10.20
2023-02-22T07:56:02.757Z,10.20
2023-02-22T07:58:31.263Z,10.20
2023-02-22T08:00:59.059Z,10.20
2023-02-22T08:03:27.238Z,10.20
2023-02-22T08:05:57.752Z,10.30
2023-02-22T08:08:25.062Z,10.30
2023-02-22T08:10:52.651Z,10.30
2023-02-22T08:13:22.331Z,10.30
2023-02-22T08:15:53.669Z,10.30
2023-02-22T08:18:21.974Z,10.30
2023-02-22T08:20:52.196Z,10.40
2023-02-22T08:23:22.625Z,10.50
2023-02-22T08:25:49.802Z,10.60
2023-02-22T08:28:20.409Z,10.60
2023-02-22T08:30:47.745Z,10.70
2023-02-22T08:33:19.562Z,10.70
2023-02-22T08:35:54.854Z,10.80
2023-02-22T08:38:27.098Z,10.80
2023-02-22T08:40:54.703Z,10.80
2023-02-22T08:43:22.977Z,10.80
2023-02-22T08:45:52.032Z,10.90
2023-02-22T08:48:20.503Z,10.90
2023-02-22T08:50:47.950Z,11.00
2023-02-22T08:53:16.388Z,11.10
2023-02-22T08:55:44.145Z,11.10
2023-02-22T08:58:12.199Z,11.10
2023-02-22T09:00:40.858Z,11.20
2023-02-22T09:03:13.267Z,11.30
2023-02-22T09:05:42.019Z,11.40
2023-02-22T09:08:09.602Z,11.40
2023-02-22T09:10:36.978Z,11.50
2023-02-22T09:13:04.643Z,11.50
2023-02-22T09:15:32.878Z,11.60
2023-02-22T09:18:00.619Z,11.60
2023-02-22T09:20:28.910Z,11.70
2023-02-22T09:22:56.919Z,11.90
2023-02-22T09:25:27.452Z,11.80
2023-02-22T09:27:55.788Z,11.90
2023-02-22T09:30:33.386Z,12.00
2023-02-22T09:33:13.013Z,12.10
2023-02-22T09:35:46.529Z,12.20
2023-02-22T09:38:26.190Z,12.40
2023-02-22T09:40:55.838Z,12.50
2023-02-22T09:43:45.301Z,12.50
2023-02-22T09:46:30.804Z,12.60
2023-02-22T09:49:15.558Z,12.70
2023-02-22T09:51:49.468Z,12.80
2023-02-22T09:54:46.383Z,13.00
2023-02-22T09:57:32.741Z,13.10
2023-02-22T10:00:14.925Z,13.20
2023-02-22T10:02:54.387Z,13.30
2023-02-22T10:05:28.090Z,13.30
2023-02-22T10:08:06.039Z,13.30
2023-02-22T10:10:36.890Z,13.30
2023-02-22T10:13:23.120Z,13.30
2023-02-22T10:16:00.830Z,13.20
2023-02-22T10:18:49.173Z,13.20
2023-02-22T10:21:39.734Z,13.20
2023-02-22T10:24:19.005Z,13.20
2023-02-22T10:26:47.275Z,13.20
2023-02-22T10:29:17.197Z,13.20
2023-02-22T10:31:52.457Z,13.20
2023-02-22T10:34:28.476Z,13.20
2023-02-22T10:37:41.944Z,13.30
2023-02-22T10:40:23.088Z,13.30
2023-02-22T10:42:50.621Z,13.30
2023-02-22T10:45:37.761Z,13.30
2023-02-22T10:48:13.843Z,13.30
2023-02-22T10:50:43.912Z,13.40
2023-02-22T10:53:11.918Z,13.50
2023-02-22T10:56:17.150Z,13.50
2023-02-22T10:58:49.219Z,13.60
2023-02-22T11:01:31.400Z,13.70
2023-02-22T11:04:16.460Z,13.70
2023-02-22T11:06:49.291Z,13.70
2023-02-22T11:09:18.916Z,13.80
2023-02-22T11:11:48.471Z,13.80
2023-02-22T11:14:35.909Z,13.80
2023-02-22T11:17:08.516Z,13.80
2023-02-22T11:19:38.429Z,13.90
2023-02-22T11:22:21.817Z,13.90
2023-02-22T11:24:59.314Z,14.00
2023-02-22T11:27:47.091Z,14.00
2023-02-22T11:30:22.112Z,14.00
2023-02-22T11:33:10.656Z,14.00
2023-02-22T11:35:55.339Z,14.10
2023-02-22T11:38:32.929Z,14.10
2023-02-22T11:41:26.146Z,14.20
2023-02-22T11:43:58.901Z,14.20
2023-02-22T11:46:45.542Z,14.30
2023-02-22T11:49:17.425Z,14.40
2023-02-22T11:52:08.662Z,14.40
2023-02-22T11:54:39.103Z,14.50
2023-02-22T11:57:25.699Z,14.50
2023-02-22T12:00:27.904Z,14.60
2023-02-22T12:03:39.295Z,14.70
2023-02-22T12:06:15.831Z,14.70
2023-02-22T12:08:57.937Z,14.70
2023-02-22T12:11:38.092Z,14.70
2023-02-22T12:14:34.280Z,14.70
2023-02-22T12:17:20.584Z,14.70
2023-02-22T12:19:52.321Z,14.80
2023-02-22T12:22:26.918Z,14.80
2023-02-22T12:25:15.896Z,15.00
2023-02-22T12:27:59.245Z,15.10
2023-02-22T12:30:40.498Z,15.20
2023-02-22T12:33:15.885Z,15.30
2023-02-22T12:35:51.370Z,15.40
2023-02-22T12:38:42.224Z,15.50
2023-02-22T12:41:19.279Z,15.60
2023-02-22T12:43:52.722Z,15.60
2023-02-22T12:46:43.720Z,15.70
2023-02-22T12:49:21.034Z,15.80
2023-02-22T12:52:20.593Z,16.00
2023-02-22T12:54:56.261Z,16.10
2023-02-22T12:57:49.052Z,16.20
2023-02-22T13:00:35.660Z,16.40
2023-02-22T13:03:15.497Z,16.80
2023-02-22T13:05:45.090Z,17.20
2023-02-22T13:08:13.503Z,17.70
2023-02-22T13:11:08.867Z,18.20
2023-02-22T13:13:45.173Z,19.40
2023-02-22T13:16:41.398Z,21.30
2023-02-22T13:19:34.914Z,24.00
2023-02-22T13:22:46.824Z,26.40
2023-02-22T13:25:24.241Z,29.40
2023-02-22T13:28:00.110Z,32.30
2023-02-22T13:30:42.197Z,33.40
2023-02-22T13:33:29.396Z,34.70
2023-02-22T13:36:27.041Z,35.50
2023-02-22T13:38:54.197Z,34.20
2023-02-22T13:41:38.754Z,34.90
2023-02-22T13:44:27.176Z,34.70
2023-02-22T13:47:29.789Z,34.20
2023-02-22T13:49:57.091Z,33.50
2023-02-22T13:52:28.933Z,34.10
2023-02-22T13:55:11.216Z,33.90
2023-02-22T13:57:41.765Z,34.60
2023-02-22T14:00:15.060Z,35.60
2023-02-22T14:03:13.248Z,34.70
2023-02-22T14:05:44.866Z,30.40
2023-02-22T14:08:17.787Z,27.20
2023-02-22T14:10:46.830Z,26.80
2023-02-22T14:13:16.193Z,27.30
2023-02-22T14:16:02.372Z,27.30
2023-02-22T14:18:31.345Z,28.30
2023-02-22T14:21:10.504Z,28.40
2023-02-22T14:23:46.374Z,28.20
2023-02-22T14:26:16.820Z,28.20
2023-02-22T14:29:00.812Z,27.50
2023-02-22T14:32:04.947Z,26.80
2023-02-22T14:34:49.652Z,27.10
2023-02-22T14:37:40.898Z,26.90
2023-02-22T14:40:18.534Z,27.30
2023-02-22T14:42:48.333Z,27.30
2023-02-22T14:45:30.055Z,27.50
2023-02-22T14:48:20.966Z,26.50
2023-02-22T14:50:53.503Z,25.50
2023-02-22T14:53:36.945Z,25.00
2023-02-22T14:56:30.314Z,24.70
2023-02-22T14:59:19.060Z,24.00
2023-02-22T15:02:01.611Z,22.90
2023-02-22T15:04:35.158Z,22.20
2023-02-22T15:07:29.085Z,21.70
2023-02-22T15:10:21.459Z,21.30
2023-02-22T15:13:10.806Z,20.80
2023-02-22T15:15:46.970Z,20.60
2023-02-22T15:18:39.914Z,20.30
2023-02-22T15:21:13.458Z,20.00
2023-02-22T15:23:57.073Z,19.70
2023-02-22T15:26:42.469Z,19.40
2023-02-22T15:29:23.143Z,19.10
2023-02-22T15:31:51.488Z,18.80
2023-02-22T15:34:29.172Z,18.50
2023-02-22T15:37:06.575Z,18.30
2023-02-22T15:39:43.761Z,18.20
2023-02-22T15:42:28.335Z,17.90
2023-02-22T15:45:03.497Z,17.80
2023-02-22T15:47:34.505Z,17.70
2023-02-22T15:50:21.334Z,17.60
2023-02-22T15:53:00.053Z,17.60
2023-02-22T15:55:33.723Z,17.40
2023-02-22T15:58:12.660Z,17.40
2023-02-22T16:00:43.257Z,17.30
2023-02-22T16:03:15.073Z,17.00
2023-02-22T16:05:49.944Z,16.80
2023-02-22T16:08:25.795Z,16.70
2023-02-22T16:11:32.833Z,16.60
2023-02-22T16:14:04.947Z,16.40
2023-02-22T16:16:36.515Z,16.30
2023-02-22T16:19:25.886Z,16.20
2023-02-22T16:21:56.317Z,16.10
2023-02-22T16:24:29.418Z,16.00
2023-02-22T16:27:16.943Z,16.00
2023-02-22T16:29:45.471Z,15.90
2023-02-22T16:32:13.994Z,15.80
2023-02-22T16:34:41.459Z,15.80
2023-02-22T16:37:22.222Z,15.70
2023-02-22T16:39:53.347Z,15.70
2023-02-22T16:42:24.213Z,15.60
2023-02-22T16:44:55.113Z,15.60
2023-02-22T16:47:22.378Z,15.60
2023-02-22T16:49:57.219Z,15.50
2023-02-22T16:52:24.621Z,15.40
2023-02-22T16:54:52.621Z,15.40
2023-02-22T16:57:22.620Z,15.30
2023-02-22T16:59:52.756Z,15.30
2023-02-22T17:02:22.037Z,15.30
2023-02-22T17:04:52.308Z,15.20
2023-02-22T17:07:29.934Z,15.10
2023-02-22T17:10:00.995Z,15.00
2023-02-22T17:12:30.445Z,15.00
2023-02-22T17:15:00.156Z,14.90
2023-02-22T17:17:27.494Z,14.80
2023-02-22T17:19:55.181Z,14.70
2023-02-22T17:22:36.435Z,14.60
2023-02-22T17:25:22.813Z,14.60
2023-02-22T17:27:50.604Z,14.60
2023-02-22T17:30:44.299Z,14.50
2023-02-22T17:36:17.367Z,14.40
2023-02-22T17:38:50.580Z,14.40
2023-02-22T17:41:31.079Z,14.40
2023-02-22T17:47:37.601Z,14.30
2023-02-22T17:50:13.259Z,14.20
2023-02-22T17:53:06.764Z,14.20
2023-02-22T17:55:42.835Z,14.20
2023-02-22T17:58:18.209Z,14.20
2023-02-22T18:00:54.245Z,14.20
2023-02-22T18:03:36.363Z,14.20
2023-02-22T18:06:19.867Z,14.10
2023-02-22T18:09:18.562Z,14.10
2023-02-22T18:12:05.826Z,14.00
2023-02-22T18:14:43.296Z,14.00
2023-02-22T18:17:13.371Z,13.90
2023-02-22T18:19:42.146Z,13.90
2023-02-22T18:22:09.326Z,13.90
2023-02-22T18:24:36.474Z,13.90
2023-02-22T18:27:06.067Z,13.90
2023-02-22T18:29:33.378Z,13.90
2023-02-22T18:32:00.611Z,13.90
2023-02-22T18:34:28.219Z,13.90
2023-02-22T18:36:55.996Z,13.90
2023-02-22T18:39:23.125Z,13.90
2023-02-22T18:41:50.551Z,13.80
2023-02-22T18:44:18.208Z,13.80
2023-02-22T18:46:45.503Z,13.80
2023-02-22T18:49:14.009Z,13.70
2023-02-22T18:51:43.609Z,13.70
2023-02-22T18:54:13.266Z,13.70
2023-02-22T18:56:40.685Z,13.60
2023-02-22T18:59:12.205Z,13.60
2023-02-22T19:01:41.135Z,13.60
2023-02-22T19:04:12.737Z,13.60
2023-02-22T19:06:41.509Z,13.50
2023-02-22T19:09:09.140Z,13.60
2023-02-22T19:11:37.191Z,13.50
2023-02-22T19:14:05.412Z,13.50
2023-02-22T19:16:33.360Z,13.50
2023-02-22T19:19:01.044Z,13.50
2023-02-22T19:21:30.079Z,13.60
2023-02-22T19:24:03.277Z,13.60
2023-02-22T19:26:30.895Z,13.50
2023-02-22T19:29:02.971Z,13.50
2023-02-22T19:31:33.763Z,13.60
2023-02-22T19:34:09.180Z,13.60
2023-02-22T19:36:40.735Z,13.60
2023-02-22T19:39:08.704Z,13.60
2023-02-22T19:41:37.291Z,13.60
2023-02-22T19:44:04.913Z,13.60
2023-02-22T19:46:32.193Z,13.60
2023-02-22T19:49:00.743Z,13.50
2023-02-22T19:51:29.706Z,13.40
2023-02-22T19:54:02.666Z,13.40
2023-02-22T19:56:31.029Z,13.30
2023-02-22T19:59:02.216Z,13.20
2023-02-22T20:01:33.269Z,13.10
2023-02-22T20:04:11.734Z,13.10
2023-02-22T20:06:41.763Z,13.10
2023-02-22T20:09:13.747Z,13.10
2023-02-22T20:11:40.984Z,13.10
2023-02-22T20:14:08.180Z,13.10
2023-02-22T20:16:35.745Z,13.10
2023-02-22T20:19:03.506Z,13.10
2023-02-22T20:21:33.557Z,13.10
2023-02-22T20:24:07.728Z,13.10
2023-02-22T20:26:36.246Z,13.10
2023-02-22T20:29:05.392Z,13.20
2023-02-22T20:31:32.966Z,13.20
2023-02-22T20:34:01.533Z,13.20
2023-02-22T20:36:30.394Z,13.20
2023-02-22T20:38:59.830Z,13.20
2023-02-22T20:41:35.720Z,13.20
2023-02-22T20:44:06.984Z,13.10
2023-02-22T20:46:37.730Z,13.10
2023-02-22T20:49:07.497Z,13.10
2023-02-22T20:51:35.489Z,13.10
2023-02-22T20:54:03.100Z,13.00
2023-02-22T20:56:32.341Z,12.90
2023-02-22T20:59:02.465Z,12.80
2023-02-22T21:01:30.530Z,12.70
2023-02-22T21:04:07.040Z,12.50
2023-02-22T21:06:37.406Z,12.50
2023-02-22T21:09:09.053Z,12.40
2023-02-22T21:11:36.889Z,12.30
2023-02-22T21:14:04.215Z,12.20
2023-02-22T21:16:35.587Z,12.20
2023-02-22T21:19:06.061Z,12.10
2023-02-22T21:21:33.477Z,12.10
2023-02-22T21:24:04.120Z,12.10
2023-02-22T21:26:34.790Z,11.90
2023-02-22T21:29:04.974Z,11.90
2023-02-22T21:31:34.158Z,11.80
2023-02-22T21:34:02.286Z,11.80
2023-02-22T21:36:30.072Z,11.80
2023-02-22T21:39:00.038Z,11.70
2023-02-22T21:41:29.978Z,11.70
2023-02-22T21:43:58.958Z,11.70
2023-02-22T21:46:29.551Z,11.70
2023-02-22T21:48:58.705Z,11.80
2023-02-22T21:51:32.588Z,11.80
2023-02-22T21:54:06.227Z,11.80
2023-02-22T21:56:37.860Z,11.80
2023-02-22T21:59:11.698Z,11.70
2023-02-22T22:01:47.658Z,11.80
2023-02-22T22:04:20.579Z,11.80
2023-02-22T22:06:50.991Z,11.80
2023-02-22T22:09:19.983Z,11.70
2023-02-22T22:11:49.811Z,11.70
2023-02-22T22:14:19.060Z,11.60
2023-02-22T22:16:48.185Z,11.50
2023-02-22T22:19:15.668Z,11.40
2023-02-22T22:21:43.043Z,11.30
2023-02-22T22:24:11.082Z,11.30
2023-02-22T22:26:39.548Z,11.30
2023-02-22T22:29:10.508Z,11.30
2023-02-22T22:31:38.042Z,11.40
2023-02-22T22:34:06.120Z,11.40
2023-02-22T22:36:34.517Z,11.50
2023-02-22T22:39:02.230Z,11.50
2023-02-22T22:41:29.533Z,11.60
2023-02-22T22:43:57.325Z,11.60
2023-02-22T22:46:24.700Z,11.60
2023-02-22T22:48:52.030Z,11.60
2023-02-22T22:51:21.060Z,11.60
2023-02-22T22:53:50.082Z,11.60
2023-02-22T22:56:21.228Z,11.60
2023-02-22T22:58:56.540Z,11.60
2023-02-22T23:01:27.620Z,11.50
2023-02-22T23:04:02.135Z,11.40
2023-02-22T23:06:32.924Z,11.40
2023-02-22T23:09:12.654Z,11.40
2023-02-22T23:11:45.738Z,11.30
2023-02-22T23:14:19.706Z,11.30
2023-02-22T23:16:48.249Z,11.30
2023-02-22T23:19:15.968Z,11.20
2023-02-22T23:21:44.051Z,11.10
2023-02-22T23:24:15.412Z,11.00
2023-02-22T23:26:50.867Z,10.90
2023-02-22T23:29:20.737Z,10.90
2023-02-22T23:31:49.490Z,10.90
2023-02-22T23:34:21.268Z,10.80
2023-02-22T23:36:49.480Z,10.80
2023-02-22T23:39:20.638Z,10.70
2023-02-22T23:41:52.541Z,10.80
2023-02-22T23:44:21.597Z,10.70
2023-02-22T23:46:49.851Z,10.70
2023-02-22T23:49:20.226Z,10.70
2023-02-22T23:51:48.222Z,10.70
2023-02-22T23:54:21.783Z,10.80
2023-02-22T23:56:58.534Z,10.90
2023-02-22T23:59:27.003Z,10.90
